sensor_id;sensor_type;location;lat;lon;timestamp;temperature;humidity
42037;DHT22;30340;52.004;5.908;2022-07-29T00:02:21;18.50;57.40
42037;DHT22;30340;52.004;5.908;2022-07-29T00:04:46;18.50;57.30
42037;DHT22;30340;52.004;5.908;2022-07-29T00:07:12;18.50;57.60
42037;DHT22;30340;52.004;5.908;2022-07-29T00:09:37;18.50;57.50
42037;DHT22;30340;52.004;5.908;2022-07-29T00:12:03;18.50;57.90
42037;DHT22;30340;52.004;5.908;2022-07-29T00:14:29;18.50;57.80
42037;DHT22;30340;52.004;5.908;2022-07-29T00:16:54;18.50;57.80
42037;DHT22;30340;52.004;5.908;2022-07-29T00:19:20;18.40;57.70
42037;DHT22;30340;52.004;5.908;2022-07-29T00:21:45;18.40;57.90
42037;DHT22;30340;52.004;5.908;2022-07-29T00:24:11;18.40;58.00
42037;DHT22;30340;52.004;5.908;2022-07-29T00:26:37;18.40;58.00
42037;DHT22;30340;52.004;5.908;2022-07-29T00:29:03;18.40;58.00
42037;DHT22;30340;52.004;5.908;2022-07-29T00:31:29;18.30;58.20
42037;DHT22;30340;52.004;5.908;2022-07-29T00:33:55;18.30;58.30
42037;DHT22;30340;52.004;5.908;2022-07-29T00:36:21;18.30;58.50
42037;DHT22;30340;52.004;5.908;2022-07-29T00:38:48;18.20;58.60
42037;DHT22;30340;52.004;5.908;2022-07-29T00:41:14;18.20;58.80
42037;DHT22;30340;52.004;5.908;2022-07-29T00:43:40;18.20;58.80
42037;DHT22;30340;52.004;5.908;2022-07-29T00:46:06;18.10;58.90
42037;DHT22;30340;52.004;5.908;2022-07-29T00:48:31;18.10;59.10
42037;DHT22;30340;52.004;5.908;2022-07-29T00:50:58;18.10;59.10
42037;DHT22;30340;52.004;5.908;2022-07-29T00:53:25;18.10;59.40
42037;DHT22;30340;52.004;5.908;2022-07-29T00:55:51;18.00;59.60
42037;DHT22;30340;52.004;5.908;2022-07-29T00:58:18;18.00;59.50
42037;DHT22;30340;52.004;5.908;2022-07-29T01:00:44;18.00;59.50
42037;DHT22;30340;52.004;5.908;2022-07-29T01:03:10;18.00;59.60
42037;DHT22;30340;52.004;5.908;2022-07-29T01:05:35;18.00;59.60
42037;DHT22;30340;52.004;5.908;2022-07-29T01:08:01;18.00;59.70
42037;DHT22;30340;52.004;5.908;2022-07-29T01:10:28;18.00;59.90
42037;DHT22;30340;52.004;5.908;2022-07-29T01:12:56;17.90;59.90
42037;DHT22;30340;52.004;5.908;2022-07-29T01:15:22;17.90;59.90
42037;DHT22;30340;52.004;5.908;2022-07-29T01:18:11;17.90;60.30
42037;DHT22;30340;52.004;5.908;2022-07-29T01:20:49;17.80;60.50
42037;DHT22;30340;52.004;5.908;2022-07-29T01:23:40;17.90;60.50
42037;DHT22;30340;52.004;5.908;2022-07-29T01:26:40;17.90;60.30
42037;DHT22;30340;52.004;5.908;2022-07-29T01:29:27;17.90;60.30
42037;DHT22;30340;52.004;5.908;2022-07-29T01:32:15;17.90;60.40
42037;DHT22;30340;52.004;5.908;2022-07-29T01:37:31;17.70;61.40
42037;DHT22;30340;52.004;5.908;2022-07-29T01:39:59;17.70;61.60
42037;DHT22;30340;52.004;5.908;2022-07-29T01:42:32;17.70;61.50
42037;DHT22;30340;52.004;5.908;2022-07-29T01:47:34;17.70;61.50
42037;DHT22;30340;52.004;5.908;2022-07-29T01:50:07;17.70;61.30
42037;DHT22;30340;52.004;5.908;2022-07-29T01:52:41;17.70;61.50
42037;DHT22;30340;52.004;5.908;2022-07-29T01:55:13;17.70;61.40
42037;DHT22;30340;52.004;5.908;2022-07-29T01:57:39;17.60;61.70
42037;DHT22;30340;52.004;5.908;2022-07-29T02:00:07;17.70;61.50
42037;DHT22;30340;52.004;5.908;2022-07-29T02:02:35;17.70;61.30
42037;DHT22;30340;52.004;5.908;2022-07-29T02:05:03;17.70;61.40
42037;DHT22;30340;52.004;5.908;2022-07-29T02:07:31;17.70;61.20
42037;DHT22;30340;52.004;5.908;2022-07-29T02:09:58;17.70;61.10
42037;DHT22;30340;52.004;5.908;2022-07-29T02:12:25;17.70;61.00
42037;DHT22;30340;52.004;5.908;2022-07-29T02:14:54;17.70;60.90
42037;DHT22;30340;52.004;5.908;2022-07-29T02:17:25;17.70;61.20
42037;DHT22;30340;52.004;5.908;2022-07-29T02:19:53;17.70;61.10
42037;DHT22;30340;52.004;5.908;2022-07-29T02:22:21;17.80;61.00
42037;DHT22;30340;52.004;5.908;2022-07-29T02:24:49;17.80;60.90
42037;DHT22;30340;52.004;5.908;2022-07-29T02:27:17;17.70;61.00
42037;DHT22;30340;52.004;5.908;2022-07-29T02:29:46;17.80;60.90
42037;DHT22;30340;52.004;5.908;2022-07-29T02:32:13;17.80;60.80
42037;DHT22;30340;52.004;5.908;2022-07-29T02:34:40;17.80;60.80
42037;DHT22;30340;52.004;5.908;2022-07-29T02:37:09;17.80;60.60
42037;DHT22;30340;52.004;5.908;2022-07-29T02:39:36;17.70;60.80
42037;DHT22;30340;52.004;5.908;2022-07-29T02:42:05;17.80;60.90
42037;DHT22;30340;52.004;5.908;2022-07-29T02:44:32;17.80;60.80
42037;DHT22;30340;52.004;5.908;2022-07-29T02:55:19;17.80;61.00
42037;DHT22;30340;52.004;5.908;2022-07-29T02:57:51;17.80;60.90
42037;DHT22;30340;52.004;5.908;2022-07-29T03:00:21;17.70;61.30
42037;DHT22;30340;52.004;5.908;2022-07-29T03:02:50;17.60;61.30
42037;DHT22;30340;52.004;5.908;2022-07-29T03:05:18;17.70;61.30
42037;DHT22;30340;52.004;5.908;2022-07-29T03:07:52;17.60;61.60
42037;DHT22;30340;52.004;5.908;2022-07-29T03:10:20;17.60;61.70
42037;DHT22;30340;52.004;5.908;2022-07-29T03:12:47;17.60;61.70
42037;DHT22;30340;52.004;5.908;2022-07-29T03:15:13;17.50;61.70
42037;DHT22;30340;52.004;5.908;2022-07-29T03:17:39;17.50;61.80
42037;DHT22;30340;52.004;5.908;2022-07-29T03:20:06;17.40;62.50
42037;DHT22;30340;52.004;5.908;2022-07-29T03:22:33;17.30;62.60
42037;DHT22;30340;52.004;5.908;2022-07-29T03:25:08;17.30;63.00
42037;DHT22;30340;52.004;5.908;2022-07-29T03:27:34;17.20;63.40
42037;DHT22;30340;52.004;5.908;2022-07-29T03:30:00;17.10;63.70
42037;DHT22;30340;52.004;5.908;2022-07-29T03:32:25;17.10;64.30
42037;DHT22;30340;52.004;5.908;2022-07-29T03:34:51;17.00;64.70
42037;DHT22;30340;52.004;5.908;2022-07-29T03:37:16;16.90;65.00
42037;DHT22;30340;52.004;5.908;2022-07-29T03:39:43;16.90;66.00
42037;DHT22;30340;52.004;5.908;2022-07-29T03:42:11;16.80;65.70
42037;DHT22;30340;52.004;5.908;2022-07-29T03:44:41;16.70;66.40
42037;DHT22;30340;52.004;5.908;2022-07-29T03:47:09;16.60;66.90
42037;DHT22;30340;52.004;5.908;2022-07-29T03:49:36;16.50;67.20
42037;DHT22;30340;52.004;5.908;2022-07-29T03:52:03;16.40;67.40
42037;DHT22;30340;52.004;5.908;2022-07-29T03:54:29;16.40;68.40
42037;DHT22;30340;52.004;5.908;2022-07-29T03:56:57;16.50;67.70
42037;DHT22;30340;52.004;5.908;2022-07-29T03:59:24;16.50;67.80
42037;DHT22;30340;52.004;5.908;2022-07-29T04:01:51;16.50;68.00
42037;DHT22;30340;52.004;5.908;2022-07-29T04:04:17;16.40;68.70
42037;DHT22;30340;52.004;5.908;2022-07-29T04:06:44;16.30;68.80
42037;DHT22;30340;52.004;5.908;2022-07-29T04:09:11;16.40;68.90
42037;DHT22;30340;52.004;5.908;2022-07-29T04:11:39;16.30;69.10
42037;DHT22;30340;52.004;5.908;2022-07-29T04:14:05;16.30;69.40
42037;DHT22;30340;52.004;5.908;2022-07-29T04:16:31;16.20;69.40
42037;DHT22;30340;52.004;5.908;2022-07-29T04:18:57;16.20;69.50
42037;DHT22;30340;52.004;5.908;2022-07-29T04:21:22;16.20;69.80
42037;DHT22;30340;52.004;5.908;2022-07-29T04:23:48;16.10;70.20
42037;DHT22;30340;52.004;5.908;2022-07-29T04:26:18;16.10;70.40
42037;DHT22;30340;52.004;5.908;2022-07-29T04:28:44;16.10;70.60
42037;DHT22;30340;52.004;5.908;2022-07-29T04:31:11;16.00;70.60
42037;DHT22;30340;52.004;5.908;2022-07-29T04:33:37;16.00;70.70
42037;DHT22;30340;52.004;5.908;2022-07-29T04:36:02;16.10;70.60
42037;DHT22;30340;52.004;5.908;2022-07-29T04:38:28;16.10;70.50
42037;DHT22;30340;52.004;5.908;2022-07-29T04:40:54;16.10;70.60
42037;DHT22;30340;52.004;5.908;2022-07-29T04:43:19;16.10;70.80
42037;DHT22;30340;52.004;5.908;2022-07-29T04:45:45;16.10;70.90
42037;DHT22;30340;52.004;5.908;2022-07-29T04:48:10;16.10;71.10
42037;DHT22;30340;52.004;5.908;2022-07-29T04:50:38;16.00;71.30
42037;DHT22;30340;52.004;5.908;2022-07-29T04:53:04;16.10;71.40
42037;DHT22;30340;52.004;5.908;2022-07-29T04:55:29;16.10;71.50
42037;DHT22;30340;52.004;5.908;2022-07-29T04:57:55;16.00;71.40
42037;DHT22;30340;52.004;5.908;2022-07-29T05:00:20;16.00;71.40
42037;DHT22;30340;52.004;5.908;2022-07-29T05:02:46;16.00;71.50
42037;DHT22;30340;52.004;5.908;2022-07-29T05:05:11;15.90;71.70
42037;DHT22;30340;52.004;5.908;2022-07-29T05:07:37;15.90;71.80
42037;DHT22;30340;52.004;5.908;2022-07-29T05:10:03;15.90;72.00
42037;DHT22;30340;52.004;5.908;2022-07-29T05:12:28;15.90;72.00
42037;DHT22;30340;52.004;5.908;2022-07-29T05:14:54;15.90;72.00
42037;DHT22;30340;52.004;5.908;2022-07-29T05:17:20;16.00;72.20
42037;DHT22;30340;52.004;5.908;2022-07-29T05:19:46;16.00;72.00
42037;DHT22;30340;52.004;5.908;2022-07-29T05:22:11;16.00;72.10
42037;DHT22;30340;52.004;5.908;2022-07-29T05:24:37;16.00;72.20
42037;DHT22;30340;52.004;5.908;2022-07-29T05:27:02;15.90;72.10
42037;DHT22;30340;52.004;5.908;2022-07-29T05:29:28;16.00;72.10
42037;DHT22;30340;52.004;5.908;2022-07-29T05:31:53;16.00;71.90
42037;DHT22;30340;52.004;5.908;2022-07-29T05:34:19;16.00;71.70
42037;DHT22;30340;52.004;5.908;2022-07-29T05:36:45;16.10;71.70
42037;DHT22;30340;52.004;5.908;2022-07-29T05:39:11;16.00;72.20
42037;DHT22;30340;52.004;5.908;2022-07-29T05:41:38;15.90;72.60
42037;DHT22;30340;52.004;5.908;2022-07-29T05:44:04;15.90;72.80
42037;DHT22;30340;52.004;5.908;2022-07-29T05:46:29;15.80;73.30
42037;DHT22;30340;52.004;5.908;2022-07-29T05:48:55;15.80;73.60
42037;DHT22;30340;52.004;5.908;2022-07-29T05:51:21;15.70;73.90
42037;DHT22;30340;52.004;5.908;2022-07-29T05:53:47;15.70;73.90
42037;DHT22;30340;52.004;5.908;2022-07-29T05:56:12;15.80;73.50
42037;DHT22;30340;52.004;5.908;2022-07-29T05:58:38;15.90;73.50
42037;DHT22;30340;52.004;5.908;2022-07-29T06:01:03;15.80;73.80
42037;DHT22;30340;52.004;5.908;2022-07-29T06:03:29;15.80;73.90
42037;DHT22;30340;52.004;5.908;2022-07-29T06:05:55;15.80;74.10
42037;DHT22;30340;52.004;5.908;2022-07-29T06:08:21;15.70;74.60
42037;DHT22;30340;52.004;5.908;2022-07-29T06:10:46;15.80;74.40
42037;DHT22;30340;52.004;5.908;2022-07-29T06:13:12;16.00;73.90
42037;DHT22;30340;52.004;5.908;2022-07-29T06:15:38;16.20;73.80
42037;DHT22;30340;52.004;5.908;2022-07-29T06:18:04;16.30;73.20
42037;DHT22;30340;52.004;5.908;2022-07-29T06:20:32;16.40;72.50
42037;DHT22;30340;52.004;5.908;2022-07-29T06:22:58;16.60;71.90
42037;DHT22;30340;52.004;5.908;2022-07-29T06:25:24;16.70;71.60
42037;DHT22;30340;52.004;5.908;2022-07-29T06:27:50;16.70;71.50
42037;DHT22;30340;52.004;5.908;2022-07-29T06:30:15;16.70;71.30
42037;DHT22;30340;52.004;5.908;2022-07-29T06:32:41;16.80;71.00
42037;DHT22;30340;52.004;5.908;2022-07-29T06:35:07;16.90;70.70
42037;DHT22;30340;52.004;5.908;2022-07-29T06:37:32;16.90;70.40
42037;DHT22;30340;52.004;5.908;2022-07-29T06:39:58;16.90;70.20
42037;DHT22;30340;52.004;5.908;2022-07-29T06:42:43;17.00;70.00
42037;DHT22;30340;52.004;5.908;2022-07-29T06:45:09;17.20;69.80
42037;DHT22;30340;52.004;5.908;2022-07-29T06:47:35;17.20;69.40
42037;DHT22;30340;52.004;5.908;2022-07-29T06:50:00;17.30;69.30
42037;DHT22;30340;52.004;5.908;2022-07-29T06:52:26;17.40;69.10
42037;DHT22;30340;52.004;5.908;2022-07-29T06:54:51;17.50;68.90
42037;DHT22;30340;52.004;5.908;2022-07-29T06:57:17;17.70;68.50
42037;DHT22;30340;52.004;5.908;2022-07-29T06:59:42;18.00;68.30
42037;DHT22;30340;52.004;5.908;2022-07-29T07:02:08;18.50;67.70
42037;DHT22;30340;52.004;5.908;2022-07-29T07:04:33;18.80;66.80
42037;DHT22;30340;52.004;5.908;2022-07-29T07:06:59;18.90;66.10
42037;DHT22;30340;52.004;5.908;2022-07-29T07:09:25;18.80;65.80
42037;DHT22;30340;52.004;5.908;2022-07-29T07:11:50;18.80;65.70
42037;DHT22;30340;52.004;5.908;2022-07-29T07:14:16;18.70;65.70
42037;DHT22;30340;52.004;5.908;2022-07-29T07:16:41;18.80;65.90
42037;DHT22;30340;52.004;5.908;2022-07-29T07:19:07;18.70;65.80
42037;DHT22;30340;52.004;5.908;2022-07-29T07:21:33;18.70;65.80
42037;DHT22;30340;52.004;5.908;2022-07-29T07:23:59;18.80;65.80
42037;DHT22;30340;52.004;5.908;2022-07-29T07:26:25;18.80;65.50
42037;DHT22;30340;52.004;5.908;2022-07-29T07:28:51;18.70;65.60
42037;DHT22;30340;52.004;5.908;2022-07-29T07:31:17;18.70;65.60
42037;DHT22;30340;52.004;5.908;2022-07-29T07:33:42;18.80;65.60
42037;DHT22;30340;52.004;5.908;2022-07-29T07:36:08;18.80;65.50
42037;DHT22;30340;52.004;5.908;2022-07-29T07:38:34;18.80;65.50
42037;DHT22;30340;52.004;5.908;2022-07-29T07:41:00;18.80;65.50
42037;DHT22;30340;52.004;5.908;2022-07-29T07:43:26;18.90;65.40
42037;DHT22;30340;52.004;5.908;2022-07-29T07:45:51;18.90;65.30
42037;DHT22;30340;52.004;5.908;2022-07-29T07:48:17;18.90;65.10
42037;DHT22;30340;52.004;5.908;2022-07-29T07:50:43;18.80;65.00
42037;DHT22;30340;52.004;5.908;2022-07-29T07:53:09;18.80;64.80
42037;DHT22;30340;52.004;5.908;2022-07-29T07:55:39;18.70;64.90
42037;DHT22;30340;52.004;5.908;2022-07-29T07:58:05;18.70;65.30
42037;DHT22;30340;52.004;5.908;2022-07-29T08:00:31;18.70;65.30
42037;DHT22;30340;52.004;5.908;2022-07-29T08:02:57;18.80;65.30
42037;DHT22;30340;52.004;5.908;2022-07-29T08:05:23;18.80;65.10
42037;DHT22;30340;52.004;5.908;2022-07-29T08:07:49;18.80;65.10
42037;DHT22;30340;52.004;5.908;2022-07-29T08:10:16;18.80;65.10
42037;DHT22;30340;52.004;5.908;2022-07-29T08:13:05;18.90;65.10
42037;DHT22;30340;52.004;5.908;2022-07-29T08:15:31;19.00;65.10
42037;DHT22;30340;52.004;5.908;2022-07-29T08:17:57;19.00;65.00
42037;DHT22;30340;52.004;5.908;2022-07-29T08:20:22;19.00;65.00
42037;DHT22;30340;52.004;5.908;2022-07-29T08:22:48;19.10;65.10
42037;DHT22;30340;52.004;5.908;2022-07-29T08:25:13;19.10;64.90
42037;DHT22;30340;52.004;5.908;2022-07-29T08:27:39;19.20;64.80
42037;DHT22;30340;52.004;5.908;2022-07-29T08:30:05;19.20;64.80
42037;DHT22;30340;52.004;5.908;2022-07-29T08:32:31;19.30;64.70
42037;DHT22;30340;52.004;5.908;2022-07-29T08:34:56;19.30;64.60
42037;DHT22;30340;52.004;5.908;2022-07-29T08:37:22;19.40;64.50
42037;DHT22;30340;52.004;5.908;2022-07-29T08:39:48;19.40;64.40
42037;DHT22;30340;52.004;5.908;2022-07-29T08:42:13;19.50;64.50
42037;DHT22;30340;52.004;5.908;2022-07-29T08:44:39;19.50;64.40
42037;DHT22;30340;52.004;5.908;2022-07-29T08:47:08;19.60;64.30
42037;DHT22;30340;52.004;5.908;2022-07-29T08:49:34;19.60;64.30
42037;DHT22;30340;52.004;5.908;2022-07-29T08:52:01;19.60;64.20
42037;DHT22;30340;52.004;5.908;2022-07-29T08:54:27;19.70;64.10
42037;DHT22;30340;52.004;5.908;2022-07-29T08:56:54;19.80;64.00
42037;DHT22;30340;52.004;5.908;2022-07-29T08:59:22;19.90;63.70
42037;DHT22;30340;52.004;5.908;2022-07-29T09:01:53;20.00;63.50
42037;DHT22;30340;52.004;5.908;2022-07-29T09:04:19;19.90;63.30
42037;DHT22;30340;52.004;5.908;2022-07-29T09:06:47;19.90;63.40
42037;DHT22;30340;52.004;5.908;2022-07-29T09:09:14;19.90;63.20
42037;DHT22;30340;52.004;5.908;2022-07-29T09:11:41;20.00;63.00
42037;DHT22;30340;52.004;5.908;2022-07-29T09:14:07;20.00;63.10
42037;DHT22;30340;52.004;5.908;2022-07-29T09:16:47;20.10;63.00
42037;DHT22;30340;52.004;5.908;2022-07-29T09:19:24;20.20;62.90
42037;DHT22;30340;52.004;5.908;2022-07-29T09:21:50;20.30;62.80
42037;DHT22;30340;52.004;5.908;2022-07-29T09:26:51;20.40;62.60
42037;DHT22;30340;52.004;5.908;2022-07-29T09:29:19;20.20;62.60
42037;DHT22;30340;52.004;5.908;2022-07-29T09:31:50;20.20;62.80
42037;DHT22;30340;52.004;5.908;2022-07-29T09:34:26;20.20;63.10
42037;DHT22;30340;52.004;5.908;2022-07-29T09:36:54;20.10;63.20
42037;DHT22;30340;52.004;5.908;2022-07-29T09:39:37;20.10;63.90
42037;DHT22;30340;52.004;5.908;2022-07-29T09:42:05;20.10;63.30
42037;DHT22;30340;52.004;5.908;2022-07-29T09:45:00;19.90;63.70
42037;DHT22;30340;52.004;5.908;2022-07-29T09:47:46;19.90;64.00
42037;DHT22;30340;52.004;5.908;2022-07-29T09:50:17;20.00;63.70
42037;DHT22;30340;52.004;5.908;2022-07-29T09:52:51;20.00;63.50
42037;DHT22;30340;52.004;5.908;2022-07-29T09:55:17;20.10;63.40
42037;DHT22;30340;52.004;5.908;2022-07-29T09:57:44;20.20;63.30
42037;DHT22;30340;52.004;5.908;2022-07-29T10:00:13;20.30;63.30
42037;DHT22;30340;52.004;5.908;2022-07-29T10:02:41;20.20;63.30
42037;DHT22;30340;52.004;5.908;2022-07-29T10:05:26;20.20;63.40
42037;DHT22;30340;52.004;5.908;2022-07-29T10:07:55;20.20;63.60
42037;DHT22;30340;52.004;5.908;2022-07-29T10:10:29;20.30;63.80
42037;DHT22;30340;52.004;5.908;2022-07-29T10:12:57;20.40;63.60
42037;DHT22;30340;52.004;5.908;2022-07-29T10:15:25;20.60;63.20
42037;DHT22;30340;52.004;5.908;2022-07-29T10:17:52;20.80;62.80
42037;DHT22;30340;52.004;5.908;2022-07-29T10:20:18;21.00;62.40
42037;DHT22;30340;52.004;5.908;2022-07-29T10:22:44;21.30;62.10
42037;DHT22;30340;52.004;5.908;2022-07-29T10:25:12;21.20;61.80
42037;DHT22;30340;52.004;5.908;2022-07-29T10:27:37;21.10;62.00
42037;DHT22;30340;52.004;5.908;2022-07-29T10:30:05;21.20;61.50
42037;DHT22;30340;52.004;5.908;2022-07-29T10:38:04;22.20;59.70
42037;DHT22;30340;52.004;5.908;2022-07-29T10:43:41;22.60;58.10
42037;DHT22;30340;52.004;5.908;2022-07-29T10:46:08;22.80;57.30
42037;DHT22;30340;52.004;5.908;2022-07-29T10:48:35;23.00;57.00
42037;DHT22;30340;52.004;5.908;2022-07-29T10:51:02;23.20;56.60
42037;DHT22;30340;52.004;5.908;2022-07-29T10:53:51;23.30;56.10
42037;DHT22;30340;52.004;5.908;2022-07-29T10:56:30;23.50;55.50
42037;DHT22;30340;52.004;5.908;2022-07-29T11:01:43;23.90;54.90
42037;DHT22;30340;52.004;5.908;2022-07-29T11:04:09;24.00;54.20
42037;DHT22;30340;52.004;5.908;2022-07-29T11:09:26;24.20;53.20
42037;DHT22;30340;52.004;5.908;2022-07-29T11:11:52;24.30;52.50
42037;DHT22;30340;52.004;5.908;2022-07-29T11:14:18;24.30;52.30
42037;DHT22;30340;52.004;5.908;2022-07-29T11:17:05;24.40;52.50
42037;DHT22;30340;52.004;5.908;2022-07-29T11:19:31;24.40;52.20
42037;DHT22;30340;52.004;5.908;2022-07-29T11:21:56;24.30;51.50
42037;DHT22;30340;52.004;5.908;2022-07-29T11:24:28;24.10;51.60
42037;DHT22;30340;52.004;5.908;2022-07-29T11:27:30;24.00;52.20
42037;DHT22;30340;52.004;5.908;2022-07-29T11:29:58;24.20;52.10
42037;DHT22;30340;52.004;5.908;2022-07-29T11:32:36;24.20;51.30
42037;DHT22;30340;52.004;5.908;2022-07-29T11:35:19;24.20;51.30
42037;DHT22;30340;52.004;5.908;2022-07-29T11:40:32;24.80;51.40
42037;DHT22;30340;52.004;5.908;2022-07-29T11:42:58;24.70;50.80
42037;DHT22;30340;52.004;5.908;2022-07-29T11:45:25;24.80;51.00
42037;DHT22;30340;52.004;5.908;2022-07-29T11:47:56;25.00;50.90
42037;DHT22;30340;52.004;5.908;2022-07-29T11:50:30;25.10;50.60
42037;DHT22;30340;52.004;5.908;2022-07-29T11:52:55;25.20;50.50
42037;DHT22;30340;52.004;5.908;2022-07-29T11:55:23;25.40;50.20
42037;DHT22;30340;52.004;5.908;2022-07-29T11:57:57;25.50;50.00
42037;DHT22;30340;52.004;5.908;2022-07-29T12:00:30;25.50;50.00
42037;DHT22;30340;52.004;5.908;2022-07-29T12:02:56;25.60;50.00
42037;DHT22;30340;52.004;5.908;2022-07-29T12:05:35;25.70;50.10
42037;DHT22;30340;52.004;5.908;2022-07-29T12:08:15;25.90;49.30
42037;DHT22;30340;52.004;5.908;2022-07-29T12:10:43;25.70;48.80
42037;DHT22;30340;52.004;5.908;2022-07-29T12:13:10;25.80;49.00
42037;DHT22;30340;52.004;5.908;2022-07-29T12:15:36;25.80;49.00
42037;DHT22;30340;52.004;5.908;2022-07-29T12:18:13;25.80;49.00
42037;DHT22;30340;52.004;5.908;2022-07-29T12:20:38;25.90;49.00
42037;DHT22;30340;52.004;5.908;2022-07-29T12:23:06;26.00;48.30
42037;DHT22;30340;52.004;5.908;2022-07-29T12:25:34;25.90;48.10
42037;DHT22;30340;52.004;5.908;2022-07-29T12:28:02;25.70;48.00
42037;DHT22;30340;52.004;5.908;2022-07-29T12:30:40;25.80;48.30
42037;DHT22;30340;52.004;5.908;2022-07-29T12:35:46;25.90;48.10
42037;DHT22;30340;52.004;5.908;2022-07-29T12:38:12;26.10;48.00
42037;DHT22;30340;52.004;5.908;2022-07-29T12:40:38;26.20;47.10
42037;DHT22;30340;52.004;5.908;2022-07-29T12:43:13;26.30;47.00
42037;DHT22;30340;52.004;5.908;2022-07-29T12:45:42;26.50;46.80
42037;DHT22;30340;52.004;5.908;2022-07-29T12:48:08;26.70;46.20
42037;DHT22;30340;52.004;5.908;2022-07-29T12:50:35;26.70;45.60
42037;DHT22;30340;52.004;5.908;2022-07-29T12:53:09;27.00;45.50
42037;DHT22;30340;52.004;5.908;2022-07-29T12:55:43;27.20;45.00
42037;DHT22;30340;52.004;5.908;2022-07-29T12:58:09;27.50;44.80
42037;DHT22;30340;52.004;5.908;2022-07-29T13:00:35;27.60;44.10
42037;DHT22;30340;52.004;5.908;2022-07-29T13:03:01;28.00;44.10
42037;DHT22;30340;52.004;5.908;2022-07-29T13:05:45;28.20;43.70
42037;DHT22;30340;52.004;5.908;2022-07-29T13:08:16;28.40;43.40
42037;DHT22;30340;52.004;5.908;2022-07-29T13:10:42;28.60;43.30
42037;DHT22;30340;52.004;5.908;2022-07-29T13:13:14;28.80;42.80
42037;DHT22;30340;52.004;5.908;2022-07-29T13:15:42;28.70;41.00
42037;DHT22;30340;52.004;5.908;2022-07-29T13:18:31;28.60;41.50
42037;DHT22;30340;52.004;5.908;2022-07-29T13:21:10;28.80;41.80
42037;DHT22;30340;52.004;5.908;2022-07-29T13:23:36;28.90;41.20
42037;DHT22;30340;52.004;5.908;2022-07-29T13:26:06;28.80;41.20
42037;DHT22;30340;52.004;5.908;2022-07-29T13:28:32;28.60;40.80
42037;DHT22;30340;52.004;5.908;2022-07-29T13:30:58;28.40;40.70
42037;DHT22;30340;52.004;5.908;2022-07-29T13:33:24;28.00;40.60
42037;DHT22;30340;52.004;5.908;2022-07-29T13:35:49;27.90;41.30
42037;DHT22;30340;52.004;5.908;2022-07-29T13:38:15;27.90;41.00
42037;DHT22;30340;52.004;5.908;2022-07-29T13:40:41;27.90;41.00
42037;DHT22;30340;52.004;5.908;2022-07-29T13:43:09;28.00;40.80
42037;DHT22;30340;52.004;5.908;2022-07-29T13:45:35;28.20;41.10
42037;DHT22;30340;52.004;5.908;2022-07-29T13:48:01;28.50;41.00
42037;DHT22;30340;52.004;5.908;2022-07-29T13:50:26;28.80;40.80
42037;DHT22;30340;52.004;5.908;2022-07-29T13:52:52;29.10;40.40
42037;DHT22;30340;52.004;5.908;2022-07-29T13:55:18;29.10;40.20
42037;DHT22;30340;52.004;5.908;2022-07-29T13:57:43;28.70;39.30
42037;DHT22;30340;52.004;5.908;2022-07-29T14:00:09;28.80;40.00
42037;DHT22;30340;52.004;5.908;2022-07-29T14:02:36;28.90;40.00
42037;DHT22;30340;52.004;5.908;2022-07-29T14:05:04;28.90;39.80
42037;DHT22;30340;52.004;5.908;2022-07-29T14:07:30;28.90;40.00
42037;DHT22;30340;52.004;5.908;2022-07-29T14:09:55;28.80;39.80
42037;DHT22;30340;52.004;5.908;2022-07-29T14:12:21;28.80;40.30
42037;DHT22;30340;52.004;5.908;2022-07-29T14:14:47;29.00;40.30
42037;DHT22;30340;52.004;5.908;2022-07-29T14:17:14;29.20;40.20
42037;DHT22;30340;52.004;5.908;2022-07-29T14:19:39;29.20;40.00
42037;DHT22;30340;52.004;5.908;2022-07-29T14:22:06;29.30;39.80
42037;DHT22;30340;52.004;5.908;2022-07-29T14:24:32;29.40;39.80
42037;DHT22;30340;52.004;5.908;2022-07-29T14:26:58;29.50;39.60
42037;DHT22;30340;52.004;5.908;2022-07-29T14:29:24;29.40;39.00
42037;DHT22;30340;52.004;5.908;2022-07-29T14:31:50;29.40;39.20
42037;DHT22;30340;52.004;5.908;2022-07-29T14:34:15;29.60;39.30
42037;DHT22;30340;52.004;5.908;2022-07-29T14:36:41;29.30;38.20
42037;DHT22;30340;52.004;5.908;2022-07-29T14:39:07;29.10;38.60
42037;DHT22;30340;52.004;5.908;2022-07-29T14:41:32;29.20;39.00
42037;DHT22;30340;52.004;5.908;2022-07-29T14:43:58;29.30;39.00
42037;DHT22;30340;52.004;5.908;2022-07-29T14:46:26;29.40;39.10
42037;DHT22;30340;52.004;5.908;2022-07-29T14:48:51;29.60;38.90
42037;DHT22;30340;52.004;5.908;2022-07-29T14:51:17;29.70;38.70
42037;DHT22;30340;52.004;5.908;2022-07-29T14:53:42;29.90;38.50
42037;DHT22;30340;52.004;5.908;2022-07-29T14:56:08;30.00;38.50
42037;DHT22;30340;52.004;5.908;2022-07-29T14:58:34;29.90;38.60
42037;DHT22;30340;52.004;5.908;2022-07-29T15:00:59;29.80;38.80
42037;DHT22;30340;52.004;5.908;2022-07-29T15:03:26;29.70;38.90
42037;DHT22;30340;52.004;5.908;2022-07-29T15:05:53;29.70;39.00
42037;DHT22;30340;52.004;5.908;2022-07-29T15:08:19;29.70;39.10
42037;DHT22;30340;52.004;5.908;2022-07-29T15:10:44;29.90;38.90
42037;DHT22;30340;52.004;5.908;2022-07-29T15:13:15;30.00;38.60
42037;DHT22;30340;52.004;5.908;2022-07-29T15:15:41;30.10;38.60
42037;DHT22;30340;52.004;5.908;2022-07-29T15:18:07;29.90;38.70
42037;DHT22;30340;52.004;5.908;2022-07-29T15:20:32;29.70;39.00
42037;DHT22;30340;52.004;5.908;2022-07-29T15:22:58;29.50;39.20
42037;DHT22;30340;52.004;5.908;2022-07-29T15:25:24;29.40;39.50
42037;DHT22;30340;52.004;5.908;2022-07-29T15:27:50;29.20;39.50
42037;DHT22;30340;52.004;5.908;2022-07-29T15:30:16;29.00;39.70
42037;DHT22;30340;52.004;5.908;2022-07-29T15:32:43;28.80;39.90
42037;DHT22;30340;52.004;5.908;2022-07-29T15:35:09;28.60;40.20
42037;DHT22;30340;52.004;5.908;2022-07-29T15:37:36;28.50;40.20
42037;DHT22;30340;52.004;5.908;2022-07-29T15:40:03;28.30;40.50
42037;DHT22;30340;52.004;5.908;2022-07-29T15:42:28;28.10;40.80
42037;DHT22;30340;52.004;5.908;2022-07-29T15:44:54;27.90;41.10
42037;DHT22;30340;52.004;5.908;2022-07-29T15:47:21;27.80;41.30
42037;DHT22;30340;52.004;5.908;2022-07-29T15:49:46;27.70;41.60
42037;DHT22;30340;52.004;5.908;2022-07-29T15:52:12;27.70;41.80
42037;DHT22;30340;52.004;5.908;2022-07-29T15:54:38;27.70;42.00
42037;DHT22;30340;52.004;5.908;2022-07-29T15:57:06;27.60;42.10
42037;DHT22;30340;52.004;5.908;2022-07-29T15:59:32;27.50;42.20
42037;DHT22;30340;52.004;5.908;2022-07-29T16:01:58;27.40;42.30
42037;DHT22;30340;52.004;5.908;2022-07-29T16:04:25;27.30;42.50
42037;DHT22;30340;52.004;5.908;2022-07-29T16:06:53;27.20;42.50
42037;DHT22;30340;52.004;5.908;2022-07-29T16:09:19;27.00;43.10
42037;DHT22;30340;52.004;5.908;2022-07-29T16:11:45;26.90;42.50